Terminal Aerodrome Forecast
Issued by NWS Bismarck, ND

Home | Current Version | Previous Version | Text Only | Print | Product List | Glossary Off
Versions: 1 2 3 4 5 6 7 8 9 10 11 12 13 14 15 16 17 18

000
FTUS43 KBIS 220300 AAA
TAFISN
TAF AMD
KISN 220351Z 2204/2224 12003KT P6SM OVC060
     FM220500 VRB03KT P6SM VCSH SCT035 OVC070
      TEMPO 2205/2207 -RAPL OVC035
     FM220700 02007KT 3SM -SN OVC020
     FM221500 33016KT 1SM -SN SCT008 OVC012=

USA.gov is the U.S. government's official web portal to all federal, state and local government web resources and services.